Time;durP1;ratioP1;P1;durP2;ratioP2;P2;SDS_P1;SDS_P2;PMS_P1;PMS_P2;Temp;Humidity;BMP_temperature;BMP_pressure;BME280_temperature;BME280_humidity;BME280_pressure;Samples;Min_cycle;Max_cycle;Signal;HPM_P1;HPM_P2
2022/01/29 00:02:11;;;;;;;16.87;8.20;;;4.20;99.90;;;;;;4989458;28;20502;-73
2022/01/29 00:04:40;;;;;;;16.27;7.20;;;4.20;99.90;;;;;;4977063;28;20511;-73
2022/01/29 00:07:08;;;;;;;15.43;8.10;;;4.20;99.90;;;;;;4975660;28;20467;-78
2022/01/29 00:12:03;;;;;;;13.97;7.70;;;4.20;99.90;;;;;;4987324;28;20542;-74
2022/01/29 00:14:30;;;;;;;25.53;8.23;;;4.20;99.90;;;;;;4980101;28;20448;-76
2022/01/29 00:16:57;;;;;;;14.73;8.00;;;4.30;99.90;;;;;;4978497;28;20856;-75
2022/01/29 00:19:23;;;;;;;14.30;7.97;;;4.30;99.90;;;;;;4991169;28;20455;-76
2022/01/29 00:21:51;;;;;;;11.93;7.30;;;4.30;99.90;;;;;;4974088;28;20469;-71
2022/01/29 00:24:18;;;;;;;17.23;7.90;;;4.30;99.90;;;;;;4972688;28;20900;-72
2022/01/29 00:26:45;;;;;;;14.23;8.80;;;4.30;99.90;;;;;;4972316;28;20484;-71
2022/01/29 00:29:18;;;;;;;16.30;7.90;;;4.30;99.90;;;;;;4972442;28;20444;-71
2022/01/29 00:31:45;;;;;;;16.90;7.50;;;4.30;99.90;;;;;;4972754;28;20492;-71
2022/01/29 00:34:11;;;;;;;13.23;7.27;;;4.30;99.90;;;;;;4972476;28;20460;-71
2022/01/29 00:36:38;;;;;;;18.20;8.70;;;4.30;99.90;;;;;;4972415;28;20540;-71
2022/01/29 00:39:06;;;;;;;20.87;9.00;;;4.30;99.90;;;;;;4971366;28;20522;-71
2022/01/29 00:41:33;;;;;;;14.27;7.47;;;4.30;99.90;;;;;;4972083;28;20479;-71
2022/01/29 00:44:00;;;;;;;14.87;7.97;;;4.30;99.90;;;;;;4966892;28;20464;-71
2022/01/29 00:46:26;;;;;;;18.53;8.70;;;4.30;99.90;;;;;;4953535;28;20453;-71
2022/01/29 00:48:53;;;;;;;14.20;8.07;;;4.30;99.90;;;;;;4967145;28;20448;-71
2022/01/29 00:51:21;;;;;;;17.87;7.50;;;4.30;99.90;;;;;;4971707;28;20476;-71
2022/01/29 00:53:47;;;;;;;20.00;9.40;;;4.30;99.90;;;;;;4956142;28;20964;-71
2022/01/29 00:56:16;;;;;;;19.33;8.20;;;4.20;99.90;;;;;;4965571;28;20504;-72
2022/01/29 00:58:43;;;;;;;18.73;9.00;;;4.20;99.90;;;;;;4953835;28;20457;-71
2022/01/29 01:01:10;;;;;;;13.43;7.73;;;4.20;99.90;;;;;;4953253;28;20489;-71
2022/01/29 01:03:36;;;;;;;13.13;7.43;;;4.20;99.90;;;;;;4969347;28;20514;-71
2022/01/29 01:06:03;;;;;;;20.03;7.40;;;4.20;99.90;;;;;;4952965;29;20452;-71
2022/01/29 01:08:30;;;;;;;14.90;8.00;;;4.20;99.90;;;;;;4969533;28;21170;-71
2022/01/29 01:10:57;;;;;;;16.90;7.90;;;4.20;99.90;;;;;;4972111;28;20536;-71
2022/01/29 01:13:25;;;;;;;19.03;8.00;;;4.30;99.90;;;;;;4955412;28;20485;-71
2022/01/29 01:15:52;;;;;;;13.17;7.50;;;4.30;99.90;;;;;;4956259;28;20460;-71
2022/01/29 01:18:18;;;;;;;11.83;7.20;;;4.30;99.90;;;;;;4964986;28;20961;-71
2022/01/29 01:20:45;;;;;;;14.30;7.60;;;4.30;99.90;;;;;;4965556;28;20468;-71
2022/01/29 01:23:12;;;;;;;12.70;7.13;;;4.30;99.90;;;;;;4971438;28;20501;-71
2022/01/29 01:25:38;;;;;;;14.20;7.20;;;4.30;99.90;;;;;;4971325;28;20448;-71
2022/01/29 01:28:05;;;;;;;13.80;7.43;;;4.30;99.90;;;;;;4952844;28;20489;-71
2022/01/29 01:30:35;;;;;;;17.03;6.97;;;4.30;99.90;;;;;;4967154;28;20480;-71
2022/01/29 01:33:02;;;;;;;14.00;6.80;;;4.40;99.90;;;;;;4970484;28;21043;-71
2022/01/29 01:35:33;;;;;;;16.23;6.93;;;4.40;99.90;;;;;;4967539;28;20475;-71
2022/01/29 01:38:09;;;;;;;9.57;5.70;;;4.40;99.90;;;;;;4952967;28;20555;-71
2022/01/29 01:40:37;;;;;;;13.40;6.97;;;4.40;99.90;;;;;;4952367;28;20486;-71
2022/01/29 01:43:04;;;;;;;13.83;6.97;;;4.40;99.90;;;;;;4952906;28;20457;-71
2022/01/29 01:45:31;;;;;;;18.07;7.13;;;4.40;99.90;;;;;;4970745;28;20933;-71
2022/01/29 01:48:03;;;;;;;9.90;6.13;;;4.40;99.90;;;;;;4971687;28;20464;-71
2022/01/29 01:50:30;;;;;;;17.77;6.40;;;4.40;99.90;;;;;;4956265;28;20484;-71
2022/01/29 01:52:56;;;;;;;15.70;7.40;;;4.40;99.90;;;;;;4958339;28;20904;-71
2022/01/29 01:55:23;;;;;;;13.93;7.17;;;4.40;99.90;;;;;;4958976;28;20460;-71
2022/01/29 01:57:50;;;;;;;11.90;6.60;;;4.40;99.90;;;;;;4971809;28;20542;-71
2022/01/29 02:00:17;;;;;;;16.03;7.20;;;4.40;99.90;;;;;;4970752;28;20476;-71
2022/01/29 02:02:44;;;;;;;15.30;7.07;;;4.40;99.90;;;;;;4971583;28;20448;-71
2022/01/29 02:05:12;;;;;;;9.90;5.97;;;4.40;99.90;;;;;;4956969;28;20456;-71
2022/01/29 02:07:39;;;;;;;14.07;7.07;;;4.40;99.90;;;;;;4971179;28;20460;-71
2022/01/29 02:10:09;;;;;;;12.30;7.37;;;4.40;99.90;;;;;;4971372;28;20690;-71
2022/01/29 02:12:45;;;;;;;9.50;6.17;;;4.40;99.90;;;;;;4955233;28;20525;-71
2022/01/29 02:15:12;;;;;;;12.10;6.33;;;4.40;99.90;;;;;;4957251;28;20814;-71
2022/01/29 02:17:39;;;;;;;13.07;6.77;;;4.40;99.90;;;;;;4959800;28;20456;-71
2022/01/29 02:20:07;;;;;;;16.50;7.50;;;4.40;99.90;;;;;;4971287;28;20507;-71
2022/01/29 02:22:35;;;;;;;18.00;7.10;;;4.40;99.90;;;;;;4971360;28;20871;-71
2022/01/29 02:25:02;;;;;;;12.50;6.30;;;4.40;99.90;;;;;;4970698;28;20523;-71
2022/01/29 02:27:28;;;;;;;11.47;7.23;;;4.50;99.90;;;;;;4972784;28;20460;-71
2022/01/29 02:29:55;;;;;;;13.60;7.43;;;4.40;99.90;;;;;;4974076;28;20480;-71
2022/01/29 02:32:22;;;;;;;12.97;6.30;;;4.40;99.90;;;;;;4974452;28;20534;-71
2022/01/29 02:34:49;;;;;;;14.17;6.60;;;4.50;99.90;;;;;;4974604;28;20455;-71
2022/01/29 02:37:15;;;;;;;15.40;6.90;;;4.50;99.90;;;;;;4974493;28;20956;-71
2022/01/29 02:39:43;;;;;;;15.27;7.10;;;4.50;99.90;;;;;;4973584;28;20581;-71
2022/01/29 02:42:10;;;;;;;13.07;6.50;;;4.50;99.90;;;;;;4974704;28;20555;-71
2022/01/29 02:44:37;;;;;;;12.80;6.37;;;4.50;99.90;;;;;;4958437;28;20460;-71
2022/01/29 02:47:25;;;;;;;10.90;6.30;;;4.50;99.90;;;;;;4959902;28;20452;-71
2022/01/29 02:49:52;;;;;;;13.77;7.20;;;4.50;99.90;;;;;;4973500;28;20527;-71
2022/01/29 02:52:18;;;;;;;14.47;8.03;;;4.50;99.90;;;;;;4973925;28;20483;-71
2022/01/29 02:54:46;;;;;;;15.43;6.87;;;4.50;99.90;;;;;;4964535;28;20514;-71
2022/01/29 02:57:13;;;;;;;11.80;6.57;;;4.50;99.90;;;;;;4974020;28;20483;-71
2022/01/29 02:59:40;;;;;;;11.47;6.80;;;4.50;99.90;;;;;;4973462;28;20448;-71
2022/01/29 03:02:06;;;;;;;9.87;6.73;;;4.60;99.90;;;;;;4974293;28;20464;-71
2022/01/29 03:04:33;;;;;;;13.00;7.20;;;4.60;99.90;;;;;;4973638;28;20491;-71
2022/01/29 03:07:00;;;;;;;15.23;7.30;;;4.60;99.90;;;;;;4964910;28;20801;-71
2022/01/29 03:09:26;;;;;;;14.33;7.57;;;4.60;99.90;;;;;;4967702;28;21019;-71
2022/01/29 03:11:56;;;;;;;14.50;7.30;;;4.60;99.90;;;;;;4973342;28;20484;-71
2022/01/29 03:14:22;;;;;;;18.23;7.20;;;4.70;99.90;;;;;;4968730;28;20556;-71
2022/01/29 03:16:49;;;;;;;15.43;7.87;;;4.70;99.90;;;;;;4960235;28;20864;-71
2022/01/29 03:19:16;;;;;;;15.10;8.17;;;4.70;99.90;;;;;;4973530;28;20459;-71
2022/01/29 03:21:42;;;;;;;14.73;8.07;;;4.60;99.90;;;;;;4973625;28;20498;-71
2022/01/29 03:24:09;;;;;;;14.73;7.43;;;4.60;99.90;;;;;;4958204;28;20515;-71
2022/01/29 03:26:35;;;;;;;15.83;8.20;;;4.70;99.90;;;;;;4965290;28;20867;-71
2022/01/29 03:29:03;;;;;;;16.73;8.70;;;4.60;99.90;;;;;;4973470;28;20924;-71
2022/01/29 03:31:30;;;;;;;16.40;7.73;;;4.70;99.90;;;;;;4973472;28;20472;-71
2022/01/29 03:33:57;;;;;;;12.33;7.03;;;4.70;99.90;;;;;;4973221;28;20538;-71
2022/01/29 03:36:23;;;;;;;15.87;8.13;;;4.60;99.90;;;;;;4959719;28;20461;-71
2022/01/29 03:38:50;;;;;;;27.53;8.80;;;4.60;99.90;;;;;;4954153;28;20504;-71
2022/01/29 03:41:17;;;;;;;15.60;7.00;;;4.60;99.90;;;;;;4959303;28;20482;-71
2022/01/29 03:43:46;;;;;;;13.37;7.00;;;4.60;99.90;;;;;;4973146;28;20806;-71
2022/01/29 03:46:15;;;;;;;14.20;8.17;;;4.60;99.90;;;;;;4973251;28;20460;-71
2022/01/29 03:48:42;;;;;;;14.20;8.10;;;4.60;99.90;;;;;;4972966;28;20460;-71
2022/01/29 03:51:08;;;;;;;15.57;7.30;;;4.60;99.90;;;;;;4973019;28;20480;-71
2022/01/29 03:53:35;;;;;;;22.30;8.00;;;4.60;99.90;;;;;;4972645;28;20612;-71
2022/01/29 03:56:02;;;;;;;11.93;7.13;;;4.60;99.90;;;;;;4972796;28;20952;-71
2022/01/29 03:58:28;;;;;;;15.17;8.53;;;4.70;99.90;;;;;;4958141;28;20523;-71
2022/01/29 04:00:55;;;;;;;16.73;7.43;;;4.70;99.90;;;;;;4955166;28;20484;-71
2022/01/29 04:03:23;;;;;;;12.13;7.27;;;4.60;99.90;;;;;;4972394;28;20471;-71
2022/01/29 04:05:50;;;;;;;16.03;8.63;;;4.60;99.90;;;;;;4972604;28;20534;-71
2022/01/29 04:08:18;;;;;;;23.40;8.43;;;4.60;99.90;;;;;;4972738;28;20514;-71
2022/01/29 04:10:47;;;;;;;16.60;7.60;;;4.60;99.90;;;;;;4971680;28;20522;-71
2022/01/29 04:13:14;;;;;;;13.60;6.90;;;4.60;99.90;;;;;;4964665;28;20563;-71
2022/01/29 04:15:41;;;;;;;16.40;7.60;;;4.60;99.90;;;;;;4972544;28;20466;-71
2022/01/29 04:18:08;;;;;;;18.63;8.10;;;4.60;99.90;;;;;;4972667;28;20460;-71
2022/01/29 04:20:36;;;;;;;14.93;8.13;;;4.60;99.90;;;;;;4968858;28;20476;-71
2022/01/29 04:23:02;;;;;;;13.87;8.13;;;4.60;99.90;;;;;;4972380;28;20527;-71
2022/01/29 04:25:29;;;;;;;15.67;7.87;;;4.50;99.90;;;;;;4972070;28;20519;-71
2022/01/29 04:27:56;;;;;;;13.70;7.20;;;4.50;99.90;;;;;;4972797;28;20452;-71
2022/01/29 04:30:29;;;;;;;15.90;7.57;;;4.50;99.90;;;;;;4971240;28;20479;-71
2022/01/29 04:33:02;;;;;;;15.77;8.10;;;4.50;99.90;;;;;;4972597;28;20488;-72
2022/01/29 04:35:30;;;;;;;15.30;7.57;;;4.50;99.90;;;;;;4972321;28;20467;-71
2022/01/29 04:37:58;;;;;;;14.90;8.57;;;4.50;99.90;;;;;;4972560;28;20452;-71
2022/01/29 04:40:25;;;;;;;17.27;8.23;;;4.50;99.90;;;;;;4971180;28;20468;-71
2022/01/29 04:42:52;;;;;;;16.70;8.37;;;4.50;99.90;;;;;;4955338;28;20508;-71
2022/01/29 04:45:18;;;;;;;15.57;8.00;;;4.50;99.90;;;;;;4958044;28;20539;-71
2022/01/29 04:47:45;;;;;;;19.30;8.83;;;4.50;99.90;;;;;;4972123;28;20456;-71
2022/01/29 04:50:12;;;;;;;16.90;7.53;;;4.50;99.90;;;;;;4971642;28;20476;-71
2022/01/29 04:52:39;;;;;;;14.80;7.43;;;4.40;99.90;;;;;;4971410;28;20456;-71
2022/01/29 04:55:09;;;;;;;19.13;8.77;;;4.40;99.90;;;;;;4971580;28;20469;-71
2022/01/29 04:57:37;;;;;;;13.20;7.67;;;4.50;99.90;;;;;;4972091;28;20945;-71
2022/01/29 05:00:07;;;;;;;21.37;8.37;;;4.50;99.90;;;;;;4972198;28;20571;-71
2022/01/29 05:02:35;;;;;;;23.67;8.70;;;4.40;99.90;;;;;;4957162;28;20453;-71
2022/01/29 05:05:01;;;;;;;18.63;7.57;;;4.40;99.90;;;;;;4953021;29;20457;-71
2022/01/29 05:07:28;;;;;;;14.77;7.87;;;4.40;99.90;;;;;;4954535;28;20453;-71
2022/01/29 05:09:55;;;;;;;12.60;7.80;;;4.40;99.90;;;;;;4961861;28;20457;-72
2022/01/29 05:12:28;;;;;;;12.70;6.17;;;4.40;99.90;;;;;;4965313;28;20944;-72
2022/01/29 05:15:08;;;;;;;18.20;7.47;;;4.30;99.90;;;;;;4972052;28;20558;-72
2022/01/29 05:28:32;;;;;;;12.23;6.20;;;4.20;99.90;;;;;;4971476;28;20498;-72
2022/01/29 05:30:59;;;;;;;16.93;7.63;;;4.20;99.90;;;;;;4971265;28;20534;-72
2022/01/29 05:33:25;;;;;;;15.23;7.20;;;4.20;99.90;;;;;;4971540;28;20540;-71
2022/01/29 05:35:52;;;;;;;12.47;6.57;;;4.20;99.90;;;;;;4971434;28;20479;-71
2022/01/29 05:38:19;;;;;;;13.73;7.20;;;4.20;99.90;;;;;;4972162;28;20460;-72
2022/01/29 05:40:45;;;;;;;11.33;6.80;;;4.20;99.90;;;;;;4965443;28;20534;-71
2022/01/29 05:43:12;;;;;;;11.57;6.90;;;4.20;99.90;;;;;;4971806;28;20539;-71
2022/01/29 05:45:40;;;;;;;8.67;5.67;;;4.20;99.90;;;;;;4971856;28;20464;-72
2022/01/29 05:48:07;;;;;;;16.53;6.47;;;4.20;99.90;;;;;;4971664;28;20456;-71
2022/01/29 05:50:33;;;;;;;14.67;7.20;;;4.20;99.90;;;;;;4970991;28;20487;-71
2022/01/29 05:53:00;;;;;;;11.23;6.70;;;4.20;99.90;;;;;;4971793;28;20562;-71
2022/01/29 05:55:28;;;;;;;12.53;6.83;;;4.20;99.90;;;;;;4964994;28;20461;-71
2022/01/29 05:57:54;;;;;;;11.70;6.80;;;4.20;99.90;;;;;;4952252;28;20453;-71
2022/01/29 06:00:21;;;;;;;11.63;6.87;;;4.20;99.90;;;;;;4964025;28;20468;-71
2022/01/29 06:02:58;;;;;;;10.37;6.20;;;4.20;99.90;;;;;;4973669;28;20464;-70
2022/01/29 06:05:25;;;;;;;10.90;6.40;;;4.20;99.90;;;;;;4969284;28;20495;-70
2022/01/29 06:07:52;;;;;;;14.13;7.47;;;4.20;99.90;;;;;;4955763;28;20490;-71
2022/01/29 06:10:19;;;;;;;18.47;7.27;;;4.20;99.90;;;;;;4981880;23;20486;-79
2022/01/29 06:12:45;;;;;;;11.00;6.37;;;4.20;99.90;;;;;;4995311;28;20502;-79
2022/01/29 06:15:12;;;;;;;16.37;7.03;;;4.20;99.90;;;;;;5002115;28;20482;-79
2022/01/29 06:17:39;;;;;;;14.20;6.40;;;4.20;99.90;;;;;;5000774;28;20529;-80
2022/01/29 06:20:08;;;;;;;13.77;7.33;;;4.20;99.90;;;;;;5001833;28;20463;-80
2022/01/29 06:22:35;;;;;;;13.67;7.50;;;4.20;99.90;;;;;;4983491;28;20456;-78
2022/01/29 06:25:01;;;;;;;14.60;6.00;;;4.20;99.90;;;;;;4977416;28;20452;-80
2022/01/29 06:27:28;;;;;;;13.93;7.00;;;4.20;99.90;;;;;;4975944;28;20875;-79
2022/01/29 06:29:54;;;;;;;16.00;7.20;;;4.20;99.90;;;;;;4974886;28;20452;-79
2022/01/29 06:32:21;;;;;;;12.17;6.70;;;4.20;99.90;;;;;;4976410;28;20508;-79
2022/01/29 06:34:48;;;;;;;12.90;6.60;;;4.20;99.90;;;;;;4976840;28;20492;-79
2022/01/29 06:37:16;;;;;;;12.17;6.37;;;4.20;99.90;;;;;;4976322;28;20471;-79
2022/01/29 06:39:43;;;;;;;12.23;7.07;;;4.20;99.90;;;;;;4976432;28;20464;-80
2022/01/29 06:42:09;;;;;;;12.77;6.17;;;4.20;99.90;;;;;;4978934;28;20491;-79
2022/01/29 06:44:36;;;;;;;11.10;7.00;;;4.20;99.90;;;;;;4977957;28;20508;-79
2022/01/29 06:47:03;;;;;;;10.60;6.20;;;4.20;99.90;;;;;;4981347;28;20506;-80
2022/01/29 06:49:31;;;;;;;12.10;5.77;;;4.20;99.90;;;;;;4975745;28;20452;-79
2022/01/29 06:51:58;;;;;;;15.43;6.13;;;4.20;99.90;;;;;;4975701;28;20476;-79
2022/01/29 06:54:26;;;;;;;10.60;6.10;;;4.30;99.90;;;;;;4976098;28;20480;-80
2022/01/29 06:56:52;;;;;;;8.20;5.07;;;4.30;99.90;;;;;;4975106;28;20451;-77
2022/01/29 06:59:19;;;;;;;12.13;6.40;;;4.30;99.90;;;;;;4974377;28;20491;-79
2022/01/29 07:01:46;;;;;;;10.20;6.50;;;4.30;99.90;;;;;;4974094;28;20480;-77
2022/01/29 07:04:12;;;;;;;10.10;5.93;;;4.30;99.90;;;;;;4974027;28;20507;-78
2022/01/29 07:06:39;;;;;;;7.90;6.03;;;4.30;99.90;;;;;;4974890;28;20859;-77
2022/01/29 07:09:06;;;;;;;11.53;6.77;;;4.30;99.90;;;;;;4974685;28;20470;-77
2022/01/29 07:11:34;;;;;;;10.57;5.80;;;4.30;99.90;;;;;;4974378;28;20487;-77
2022/01/29 07:14:02;;;;;;;9.23;5.77;;;4.30;99.90;;;;;;4975771;28;20514;-80
2022/01/29 07:16:30;;;;;;;12.17;5.90;;;4.40;99.90;;;;;;4976502;28;20452;-79
2022/01/29 07:18:57;;;;;;;9.27;5.70;;;4.40;99.90;;;;;;4974848;28;20506;-79
2022/01/29 07:21:24;;;;;;;9.93;6.10;;;4.40;99.90;;;;;;4975540;28;20467;-80
2022/01/29 07:23:50;;;;;;;12.10;5.40;;;4.40;99.90;;;;;;4973240;28;20839;-79
2022/01/29 07:26:17;;;;;;;7.83;4.90;;;4.40;99.90;;;;;;4975314;28;20496;-80
2022/01/29 07:28:45;;;;;;;9.10;5.70;;;4.40;99.90;;;;;;4973974;28;20460;-78
2022/01/29 07:31:12;;;;;;;7.20;5.27;;;4.40;99.90;;;;;;4975633;28;20472;-81
2022/01/29 07:33:38;;;;;;;6.87;4.90;;;4.40;99.90;;;;;;4979483;28;20488;-81
2022/01/29 07:36:06;;;;;;;8.47;5.63;;;4.50;99.90;;;;;;4980138;28;20449;-81
2022/01/29 07:38:33;;;;;;;7.37;4.87;;;4.50;99.90;;;;;;4980380;28;20502;-80
2022/01/29 07:40:59;;;;;;;10.10;4.83;;;4.60;99.90;;;;;;4980528;28;20476;-80
2022/01/29 07:43:27;;;;;;;8.00;5.23;;;4.60;99.90;;;;;;4979260;28;20530;-79
2022/01/29 07:45:55;;;;;;;7.40;4.60;;;4.60;99.90;;;;;;4977161;28;20863;-78
2022/01/29 07:48:22;;;;;;;9.57;5.47;;;4.60;99.90;;;;;;4973738;28;20804;-80
2022/01/29 07:50:48;;;;;;;8.47;5.03;;;4.60;99.90;;;;;;4978248;28;20229;-77
2022/01/29 07:53:15;;;;;;;9.20;5.43;;;4.60;99.90;;;;;;4973546;28;20508;-79
2022/01/29 07:55:42;;;;;;;7.73;4.47;;;4.70;99.90;;;;;;4973687;28;20491;-79
2022/01/29 07:58:09;;;;;;;10.27;4.93;;;4.70;99.90;;;;;;4975201;28;20952;-78
2022/01/29 08:00:36;;;;;;;12.53;4.90;;;4.70;99.90;;;;;;4975205;28;20464;-80
2022/01/29 08:03:04;;;;;;;6.20;4.67;;;4.70;99.90;;;;;;4974966;28;20459;-78
2022/01/29 08:05:33;;;;;;;6.80;4.67;;;4.70;99.90;;;;;;4974080;28;20456;-80
2022/01/29 08:07:59;;;;;;;6.53;4.57;;;4.80;99.90;;;;;;4972434;28;20460;-81
2022/01/29 08:10:26;;;;;;;9.30;5.03;;;4.80;99.90;;;;;;4971604;28;20448;-78
2022/01/29 08:12:53;;;;;;;7.63;4.80;;;4.80;99.90;;;;;;4972295;28;20460;-77
2022/01/29 08:15:20;;;;;;;5.10;4.50;;;4.90;99.90;;;;;;4971892;28;20484;-78
2022/01/29 08:17:46;;;;;;;10.00;4.50;;;4.90;99.90;;;;;;4972987;28;20460;-78
2022/01/29 08:20:14;;;;;;;8.37;4.60;;;4.90;99.90;;;;;;4971870;28;20491;-78
2022/01/29 08:22:41;;;;;;;6.70;4.80;;;4.90;99.90;;;;;;4972909;28;20460;-77
2022/01/29 08:25:08;;;;;;;9.30;4.00;;;4.90;99.90;;;;;;4972200;28;20480;-79
2022/01/29 08:27:35;;;;;;;9.40;5.50;;;4.90;99.90;;;;;;4972438;28;20460;-78
2022/01/29 08:30:01;;;;;;;5.93;4.20;;;5.00;99.90;;;;;;4971883;28;20464;-77
2022/01/29 08:32:28;;;;;;;17.00;4.40;;;4.90;99.90;;;;;;4972761;28;20952;-78
2022/01/29 08:34:55;;;;;;;6.37;4.33;;;5.00;99.90;;;;;;4972141;28;20897;-78
2022/01/29 08:37:23;;;;;;;5.50;4.20;;;5.00;99.90;;;;;;4973000;28;20456;-77
2022/01/29 08:39:49;;;;;;;10.50;4.73;;;5.00;99.90;;;;;;4972049;28;21003;-78
2022/01/29 08:42:16;;;;;;;6.87;4.33;;;5.00;99.90;;;;;;4972864;28;21038;-78
2022/01/29 08:44:43;;;;;;;4.40;4.00;;;5.00;99.90;;;;;;4973223;28;20847;-78
2022/01/29 08:47:09;;;;;;;8.07;4.80;;;5.00;99.90;;;;;;4972207;28;20513;-78
2022/01/29 08:49:38;;;;;;;4.37;3.77;;;5.00;99.90;;;;;;4972734;28;20452;-78
2022/01/29 08:52:05;;;;;;;5.97;3.67;;;5.10;99.90;;;;;;4972821;28;20476;-78
2022/01/29 08:54:33;;;;;;;3.77;3.47;;;5.10;99.90;;;;;;4972244;28;20891;-77
2022/01/29 08:57:00;;;;;;;5.73;3.73;;;5.10;99.90;;;;;;4972319;28;20940;-78
2022/01/29 08:59:26;;;;;;;4.17;3.77;;;5.10;99.90;;;;;;4972333;28;20460;-78
2022/01/29 09:01:53;;;;;;;4.23;3.70;;;5.10;99.90;;;;;;4971932;28;20468;-78
2022/01/29 09:04:20;;;;;;;3.73;3.10;;;5.20;99.90;;;;;;4972513;28;20503;-77
2022/01/29 09:06:46;;;;;;;6.00;3.90;;;5.20;99.90;;;;;;4972696;28;20455;-78
2022/01/29 09:09:18;;;;;;;4.70;3.20;;;5.30;99.90;;;;;;4953339;28;20461;-78
2022/01/29 09:11:46;;;;;;;4.57;3.60;;;5.30;99.90;;;;;;4953452;28;20497;-77
2022/01/29 09:14:12;;;;;;;3.30;3.00;;;5.30;99.90;;;;;;4971949;28;20488;-78
2022/01/29 09:16:39;;;;;;;3.53;3.03;;;5.30;99.90;;;;;;4972500;28;21008;-77
2022/01/29 09:19:06;;;;;;;4.10;3.40;;;5.40;99.90;;;;;;4971869;28;20515;-79
2022/01/29 09:21:32;;;;;;;4.90;3.30;;;5.40;99.90;;;;;;4972647;28;20480;-78
2022/01/29 09:23:59;;;;;;;3.30;3.00;;;5.40;99.90;;;;;;4972252;28;20456;-78
2022/01/29 09:26:26;;;;;;;2.97;2.77;;;5.40;99.90;;;;;;4972413;28;20456;-78
2022/01/29 09:28:54;;;;;;;2.87;2.57;;;5.50;99.90;;;;;;4972159;28;20459;-79
2022/01/29 09:31:21;;;;;;;3.23;2.93;;;5.50;99.90;;;;;;4974084;28;20526;-79
2022/01/29 09:33:48;;;;;;;3.03;2.80;;;5.50;99.90;;;;;;4973281;28;20451;-79
2022/01/29 09:36:14;;;;;;;2.53;2.33;;;5.60;99.90;;;;;;4974206;28;20487;-78
2022/01/29 09:38:42;;;;;;;2.73;2.53;;;5.60;99.90;;;;;;4974554;28;20510;-78
2022/01/29 09:41:09;;;;;;;2.50;2.30;;;5.60;99.90;;;;;;4963742;28;20472;-79
2022/01/29 09:43:36;;;;;;;2.37;2.17;;;5.60;99.90;;;;;;4976391;28;20460;-79
2022/01/29 09:46:05;;;;;;;2.60;2.40;;;5.70;99.90;;;;;;4976423;28;20474;-79
2022/01/29 09:48:32;;;;;;;2.73;2.53;;;5.70;99.90;;;;;;4975977;28;20460;-79
2022/01/29 09:50:59;;;;;;;2.67;2.47;;;5.70;99.90;;;;;;4976545;28;20476;-78
2022/01/29 09:53:26;;;;;;;2.90;2.70;;;5.70;99.90;;;;;;4975235;28;20459;-79
2022/01/29 09:55:53;;;;;;;2.77;2.30;;;5.70;99.90;;;;;;4970674;28;20579;-79
2022/01/29 09:58:21;;;;;;;2.57;2.37;;;5.80;99.90;;;;;;4975440;28;20919;-77
2022/01/29 10:00:47;;;;;;;2.23;2.13;;;5.80;99.90;;;;;;4975084;28;20510;-78
2022/01/29 10:03:19;;;;;;;2.77;2.57;;;5.80;99.90;;;;;;4974968;28;20460;-77
2022/01/29 10:05:47;;;;;;;2.43;2.23;;;5.80;99.90;;;;;;4974145;28;20464;-78
2022/01/29 10:08:15;;;;;;;2.63;2.40;;;6.10;99.90;;;;;;4974993;28;20469;-79
2022/01/29 10:10:44;;;;;;;2.43;2.33;;;5.90;99.90;;;;;;4985624;28;20483;-83
2022/01/29 10:13:39;;;;;;;2.30;2.10;;;6.10;99.90;;;;;;4962902;29;20456;-78
2022/01/29 10:16:09;;;;;;;2.50;2.30;;;6.10;99.90;;;;;;4927435;28;20311;-78
2022/01/29 10:18:37;;;;;;;2.73;2.53;;;6.10;99.90;;;;;;4972987;28;20471;-78
2022/01/29 10:21:10;;;;;;;2.10;2.00;;;6.10;99.90;;;;;;4974069;28;21042;-77
2022/01/29 10:23:36;;;;;;;2.70;2.20;;;6.10;99.90;;;;;;4975156;28;20448;-78
2022/01/29 10:26:04;;;;;;;2.80;2.33;;;6.10;99.90;;;;;;4975009;28;20447;-78
2022/01/29 10:28:32;;;;;;;2.43;2.23;;;6.10;99.90;;;;;;4974131;28;20831;-77
2022/01/29 10:31:03;;;;;;;3.23;2.20;;;6.20;99.90;;;;;;4974421;28;21094;-78
2022/01/29 10:33:31;;;;;;;2.00;1.90;;;6.20;99.90;;;;;;4975969;28;20460;-76
2022/01/29 10:36:01;;;;;;;2.40;2.20;;;6.30;99.90;;;;;;4975035;28;20491;-77
2022/01/29 10:38:30;;;;;;;2.27;2.17;;;6.30;99.90;;;;;;4973954;28;20462;-77
2022/01/29 10:41:11;;;;;;;2.20;2.00;;;6.30;99.90;;;;;;4973537;28;20483;-77
2022/01/29 10:44:11;;;;;;;2.40;2.20;;;6.40;99.90;;;;;;4973649;28;20983;-77
2022/01/29 10:46:41;;;;;;;2.10;2.00;;;6.40;99.90;;;;;;4973893;28;20547;-77
2022/01/29 10:49:08;;;;;;;2.20;1.90;;;6.40;99.90;;;;;;4973238;28;20452;-77
2022/01/29 10:51:36;;;;;;;2.00;1.90;;;6.50;99.90;;;;;;4974097;28;20472;-77
2022/01/29 10:54:16;;;;;;;2.97;2.00;;;6.50;99.90;;;;;;4973693;28;21154;-77
2022/01/29 10:56:55;;;;;;;2.23;2.03;;;6.60;99.90;;;;;;4973765;28;21014;-77
2022/01/29 10:59:22;;;;;;;2.43;2.13;;;6.60;99.90;;;;;;4973559;28;20452;-76
2022/01/29 11:01:52;;;;;;;2.23;2.13;;;6.70;99.90;;;;;;4973297;28;20508;-77
2022/01/29 11:04:18;;;;;;;1.90;1.80;;;6.70;99.90;;;;;;4974098;28;20525;-77
2022/01/29 11:06:48;;;;;;;2.10;2.00;;;6.70;99.90;;;;;;4974131;28;20460;-76
2022/01/29 11:09:16;;;;;;;1.97;1.87;;;6.80;99.90;;;;;;4973752;28;20456;-77
2022/01/29 11:11:45;;;;;;;1.70;1.60;;;6.80;99.90;;;;;;4973192;28;20511;-76
2022/01/29 11:14:13;;;;;;;2.30;2.20;;;6.80;99.90;;;;;;4973378;28;20460;-77
2022/01/29 11:16:40;;;;;;;1.70;1.60;;;6.90;99.90;;;;;;4973224;28;20925;-77
2022/01/29 11:19:07;;;;;;;1.73;1.63;;;6.90;99.90;;;;;;4973334;28;20468;-77
2022/01/29 11:21:36;;;;;;;1.77;1.67;;;7.00;99.90;;;;;;4973022;28;20539;-76
2022/01/29 11:24:07;;;;;;;1.87;1.77;;;7.00;99.90;;;;;;4974237;28;20824;-77
2022/01/29 11:26:35;;;;;;;2.83;1.63;;;7.10;99.90;;;;;;4973201;28;20460;-77
2022/01/29 11:29:24;;;;;;;1.77;1.67;;;7.10;99.90;;;;;;4973599;28;20456;-76
2022/01/29 11:32:25;;;;;;;2.40;2.20;;;7.10;99.90;;;;;;4966357;28;20538;-76
2022/01/29 11:35:13;;;;;;;1.87;1.77;;;7.10;99.90;;;;;;4973422;28;21003;-76
2022/01/29 11:37:50;;;;;;;2.20;2.10;;;7.10;99.90;;;;;;4973285;28;20471;-77
2022/01/29 11:40:24;;;;;;;1.90;1.80;;;7.20;99.90;;;;;;4973604;28;20452;-76
2022/01/29 11:42:57;;;;;;;2.00;1.90;;;7.20;99.90;;;;;;4958008;28;20776;-77
2022/01/29 11:45:44;;;;;;;2.60;2.30;;;7.20;99.90;;;;;;4973422;28;20992;-77
2022/01/29 11:48:50;;;;;;;1.93;1.83;;;7.30;99.90;;;;;;4973546;28;20452;-76
2022/01/29 11:51:46;;;;;;;1.83;1.57;;;7.30;99.90;;;;;;4971744;28;20482;-76
2022/01/29 11:54:26;;;;;;;1.63;1.53;;;7.40;99.90;;;;;;4972982;28;20456;-75
2022/01/29 11:57:14;;;;;;;2.50;2.30;;;7.40;99.90;;;;;;4973014;28;20492;-75
2022/01/29 11:59:41;;;;;;;1.87;1.77;;;7.40;99.90;;;;;;4973132;28;20957;-75
2022/01/29 12:02:44;;;;;;;2.37;1.80;;;7.40;99.90;;;;;;4972929;28;20484;-76
2022/01/29 12:05:11;;;;;;;2.20;2.07;;;7.40;99.90;;;;;;4954084;29;20448;-75
2022/01/29 12:08:07;;;;;;;2.00;1.90;;;7.40;99.90;;;;;;4960120;28;20467;-76
2022/01/29 12:10:39;;;;;;;1.97;1.87;;;7.40;99.90;;;;;;4969261;28;20475;-76
2022/01/29 12:13:12;;;;;;;2.40;2.20;;;7.40;99.90;;;;;;5012817;23;20495;-70
2022/01/29 12:15:39;;;;;;;2.20;2.10;;;7.40;99.90;;;;;;4992929;28;20482;-70
2022/01/29 12:18:25;;;;;;;2.70;1.93;;;7.40;99.90;;;;;;4993052;28;20568;-70
2022/01/29 12:20:52;;;;;;;2.50;2.30;;;7.40;99.90;;;;;;4986899;28;20542;-70
2022/01/29 12:23:19;;;;;;;1.93;1.83;;;7.40;99.90;;;;;;4992768;28;21015;-70
2022/01/29 12:25:54;;;;;;;2.50;2.30;;;7.40;99.90;;;;;;4972500;28;20485;-69
2022/01/29 12:28:22;;;;;;;2.47;1.90;;;7.40;99.90;;;;;;4971392;28;20542;-70
2022/01/29 12:30:49;;;;;;;2.00;1.90;;;7.40;99.90;;;;;;4972976;28;20452;-70
2022/01/29 12:33:17;;;;;;;2.60;2.50;;;7.50;99.90;;;;;;4973129;28;20889;-73
2022/01/29 12:35:46;;;;;;;1.83;1.73;;;7.50;99.90;;;;;;4974831;28;20899;-69
2022/01/29 12:38:14;;;;;;;2.67;2.47;;;7.50;99.90;;;;;;4992740;28;20816;-70
2022/01/29 12:40:50;;;;;;;1.90;1.80;;;7.40;99.90;;;;;;4977027;28;20457;-72
2022/01/29 12:43:28;;;;;;;2.43;1.70;;;7.50;99.90;;;;;;4973736;28;20849;-72
2022/01/29 12:46:06;;;;;;;1.83;1.73;;;7.50;99.90;;;;;;4973049;28;20486;-72
2022/01/29 12:48:33;;;;;;;2.17;1.90;;;7.50;99.90;;;;;;4972794;28;20463;-69
2022/01/29 12:51:05;;;;;;;1.70;1.60;;;7.50;99.90;;;;;;4971559;28;20464;-70
2022/01/29 12:53:33;;;;;;;2.23;2.13;;;7.50;99.90;;;;;;4976798;28;20531;-70
2022/01/29 12:56:01;;;;;;;1.60;1.50;;;7.50;99.90;;;;;;4979954;28;20583;-72
2022/01/29 12:58:31;;;;;;;1.70;1.60;;;7.50;99.90;;;;;;4972301;28;20456;-68
2022/01/29 13:01:09;;;;;;;1.77;1.67;;;7.50;99.90;;;;;;4957453;28;20575;-69
2022/01/29 13:03:37;;;;;;;1.67;1.57;;;7.50;99.90;;;;;;4972251;28;20456;-69
2022/01/29 13:06:07;;;;;;;1.93;1.83;;;7.60;99.90;;;;;;4972018;28;20460;-69
2022/01/29 13:08:34;;;;;;;2.23;2.03;;;7.60;99.90;;;;;;4971512;28;20551;-70
2022/01/29 13:11:00;;;;;;;2.10;1.60;;;7.70;99.90;;;;;;4982863;28;20546;-70
2022/01/29 13:13:30;;;;;;;2.40;2.20;;;7.70;99.90;;;;;;4974260;28;20456;-70